Ana Sayfa
METAR-TAF:

METAR-TAF

Havaalanları :

Bandırma, Türkiye

Bandırma Havalimanı

Enlem: 40-19N, Boylam: 027-58E, yükseklik: 51 m

Güncel hava durumu gözlemi

Rapor saat 17:08 UTC de 15 saat ve 31 dakika önce yapıldı.
Rüzgar kuzey/kuzeydoğudan 8 kt
Sıcaklık 9°C
Nem 93%
Basınç 1012 hPa
Görüş mesafesi: 6000 m
1500 ft yükseklikte az bulutlu
3500 ft yükseklikte parçalı bulutlu
10000 ft yükseklikte parçalı çok bulutlu
hafif sağanak yağmurlar

METAR: LTBG 221708Z 02008KT 6000 -SHRA FEW015 SCT035 BKN100 09/08 Q1012 NOSIG RMK RWY18 36011KT

Saat: 11:39 (08:39 UTC)

Tahmin

Rapor saat 04:40 UTC de 3 saat ve 59 dakika önce yapıldı.
Ayın 23'si saat 06 UTC'den ayın 23'si saat 15 UTC'ye kadar geçerli Tahmin
Rüzgar kuzey/kuzeydoğudan 14 kt
Görüş mesafesi 10 km veya daha fazla
1000 ft yükseklikte az bulutlu
3500 ft yükseklikte parçalı bulutlu
10000 ft yükseklikte parçalı çok bulutlu

TAF: LTBG 230440Z 2306/2315 03014KT 9999 FEW010 SCT035 BKN100

4.000'den fazla havaalanı için hava durumu gözlemleri ve tahminleri (METAR ve TAF raporları).

Kullanılabilir istasyonlar harita üzerinde sarı ve kırmızı noktalarla gösterilir.

İstasyonun adını görmek için fareyi noktanın üzerinde gezdirin.

Sonrasında hava gözlem ve tahminlerini görmek için tıklayın.

Haritayı değiştirmek için: yaklaştırmak için siyah artı işaretli yeşil düğmeye ve uzaklaştırmak için de eksi işaretli düğmeye hızla tıklayın; bitişik haritalar için yeşil okları kullanın.


METAR-TAF: